< Typhoon 196309 1963 Season Typhoon 196311 >
Typhoon 196310 (CARMEN)
General InformationTrack Information on Google Maps || Disaster Info.ResourceGoogle EarthGE AnimationAtom FeedGeoJSON
Detalied Best Track (Time Zone = UTC)
Year Month Day Hour Lat. Long. Pressure (hPa) Wind (kt) Class Image Chart
1963 8 8 00 8.8 144.7 1003 0 2 -- Chart
1963 8 8 06 8.9 143.7 1004 0 2 -- Chart
1963 8 8 12 9.0 142.7 1006 0 2 -- Chart
1963 8 8 18 9.1 141.7 1006 0 2 -- Chart
1963 8 9 00 9.1 140.7 1006 0 2 -- Chart
1963 8 9 06 9.1 139.6 1004 0 2 -- Chart
1963 8 9 12 9.2 138.5 1006 0 2 -- Chart
1963 8 9 18 9.2 137.3 1004 0 2 -- Chart
1963 8 10 00 9.2 136.3 1004 0 2 -- Chart
1963 8 10 06 9.3 135.5 1000 0 9 -- Chart
1963 8 10 12 9.5 134.4 995 0 9 -- Chart
1963 8 10 18 9.7 132.5 990 0 9 -- Chart
1963 8 11 00 9.8 132.3 980 0 9 -- Chart
1963 8 11 06 10.3 131.4 980 0 9 -- Chart
1963 8 11 12 10.8 130.1 980 0 9 -- Chart
1963 8 11 18 11.5 128.8 980 0 9 -- Chart
1963 8 12 00 11.8 127.6 960 0 9 -- Chart
1963 8 12 06 12.0 126.5 930 0 9 -- Chart
1963 8 12 12 12.5 125.8 930 0 9 -- Chart
1963 8 12 18 13.0 125.2 960 0 9 -- Chart
1963 8 13 00 13.6 124.5 980 0 9 -- Chart
1963 8 13 06 14.3 124.0 980 0 9 -- Chart
1963 8 13 12 14.9 122.9 980 0 9 -- Chart
1963 8 13 18 15.5 122.3 980 0 9 -- Chart
1963 8 14 00 16.2 121.1 980 0 9 -- Chart
1963 8 14 06 16.7 119.6 970 0 9 -- Chart
1963 8 14 12 17.3 118.7 970 0 9 -- Chart
1963 8 14 18 17.7 117.5 970 0 9 -- Chart
1963 8 15 00 18.2 116.4 980 0 9 -- Chart
1963 8 15 06 18.4 114.8 980 0 9 -- Chart
1963 8 15 12 18.5 113.3 980 0 9 -- Chart
1963 8 15 18 19.1 112.3 980 0 9 -- Chart
1963 8 16 00 19.6 111.4 985 0 9 -- Chart
1963 8 16 06 20.0 110.5 988 0 9 -- Chart
1963 8 16 12 20.4 109.7 990 0 9 -- Chart
1963 8 16 18 21.0 108.7 990 0 9 -- Chart
1963 8 17 00 21.3 107.6 990 0 9 -- Chart
1963 8 17 06 21.7 106.5 994 0 9 -- Chart
1963 8 17 12 22.0 105.5 996 0 9 -- Chart
1963 8 17 18 22.0 104.4 996 0 9 -- Chart
1963 8 18 00 21.9 103.2 998 0 2 -- Chart
1963 8 18 06 21.5 102.3 1000 0 2 -- Chart
1963 8 18 12 21.4 101.4 1002 0 2 -- Chart
Japan Meteorological Agency Best Track Data | Correction Date : 1989-06-01
< Typhoon 196309 1963 Season Typhoon 196311 >

Help